Lacey, Iowa
Current Conditions -  °F | °C
As of 3:55 AM on Wednesday 26 Nov 2014 (Local Time) from KPEA Reporting Station
Clear Clear  
Wind Chill: 20°   Ceiling: Unl
Heat Index: 28°   Visibility: 10mi
Dew Point: 21°   Wind: 8mph
Humidity: 75%   Direction: 120°ESE
Pressure: 29.96"   Gusts: NA
Location:  41.465°N, 92.7016°W
Report Text: KPEA 260955Z AUTO 12007KT 10SM CLR M02/M06 A2996 RMK AO2 T10201059
Loading
Personal Weather Stations






























Interactive Weather Map New forecast layout! Learn more

10-Day Weather Forecast

Advertisements
Track Severe Weather on mobile